sensor_id;sensor_type;location;lat;lon;timestamp;temperature;humidity
41547;DHT22;27271;45.412;10.852;2024-01-15T05:03:05;1.70;88.90
41547;DHT22;27271;45.412;10.852;2024-01-15T05:06:27;1.70;58.80
41547;DHT22;27271;45.412;10.852;2024-01-15T05:09:50;1.80;40.10
41547;DHT22;27271;45.412;10.852;2024-01-15T05:13:12;1.80;19.00
41547;DHT22;27271;45.412;10.852;2024-01-15T05:16:47;1.90;14.60
41547;DHT22;27271;45.412;10.852;2024-01-15T05:20:20;1.90;6.90
41547;DHT22;27271;45.412;10.852;2024-01-15T05:23:42;1.90;14.50
41547;DHT22;27271;45.412;10.852;2024-01-15T05:27:05;2.00;10.90
41547;DHT22;27271;45.412;10.852;2024-01-15T05:30:27;1.90;29.00
41547;DHT22;27271;45.412;10.852;2024-01-15T05:33:49;2.00;19.40
41547;DHT22;27271;45.412;10.852;2024-01-15T05:37:14;2.00;19.80
41547;DHT22;27271;45.412;10.852;2024-01-15T05:40:36;2.00;27.10
41547;DHT22;27271;45.412;10.852;2024-01-15T05:43:59;2.00;26.00
41547;DHT22;27271;45.412;10.852;2024-01-15T05:47:21;1.90;30.70
41547;DHT22;27271;45.412;10.852;2024-01-15T05:50:44;1.80;67.30
41547;DHT22;27271;45.412;10.852;2024-01-15T05:54:06;1.80;92.70
41547;DHT22;27271;45.412;10.852;2024-01-15T05:57:28;1.80;99.90
41547;DHT22;27271;45.412;10.852;2024-01-15T06:00:51;1.90;92.90
41547;DHT22;27271;45.412;10.852;2024-01-15T06:04:13;2.10;89.20
41547;DHT22;27271;45.412;10.852;2024-01-15T06:07:36;2.10;73.70
41547;DHT22;27271;45.412;10.852;2024-01-15T06:10:59;2.20;65.60
41547;DHT22;27271;45.412;10.852;2024-01-15T06:14:23;2.10;82.40
41547;DHT22;27271;45.412;10.852;2024-01-15T06:17:45;2.20;65.40
41547;DHT22;27271;45.412;10.852;2024-01-15T06:21:08;2.20;68.60
41547;DHT22;27271;45.412;10.852;2024-01-15T06:24:32;2.20;84.90
41547;DHT22;27271;45.412;10.852;2024-01-15T06:27:55;2.20;57.10
41547;DHT22;27271;45.412;10.852;2024-01-15T06:31:17;2.10;76.50
41547;DHT22;27271;45.412;10.852;2024-01-15T06:34:39;2.10;90.80
41547;DHT22;27271;45.412;10.852;2024-01-15T06:38:02;2.20;73.90
41547;DHT22;27271;45.412;10.852;2024-01-15T06:41:24;2.10;96.70
41547;DHT22;27271;45.412;10.852;2024-01-15T06:44:47;2.00;99.90
41547;DHT22;27271;45.412;10.852;2024-01-15T06:48:09;2.10;99.90
41547;DHT22;27271;45.412;10.852;2024-01-15T06:51:35;2.20;96.50
41547;DHT22;27271;45.412;10.852;2024-01-15T06:54:57;2.20;89.20
41547;DHT22;27271;45.412;10.852;2024-01-15T06:58:20;2.10;99.90
41547;DHT22;27271;45.412;10.852;2024-01-15T07:01:42;2.10;88.00
41547;DHT22;27271;45.412;10.852;2024-01-15T07:05:04;2.10;51.50
41547;DHT22;27271;45.412;10.852;2024-01-15T07:08:29;2.10;29.90
41547;DHT22;27271;45.412;10.852;2024-01-15T07:11:51;2.10;61.60
41547;DHT22;27271;45.412;10.852;2024-01-15T07:15:14;2.10;62.50
41547;DHT22;27271;45.412;10.852;2024-01-15T07:18:38;2.20;48.60
41547;DHT22;27271;45.412;10.852;2024-01-15T07:22:00;2.20;56.50
41547;DHT22;27271;45.412;10.852;2024-01-15T07:25:23;2.40;28.40
41547;DHT22;27271;45.412;10.852;2024-01-15T07:28:49;2.40;47.40
41547;DHT22;27271;45.412;10.852;2024-01-15T07:32:11;2.60;38.20
41547;DHT22;27271;45.412;10.852;2024-01-15T07:35:33;2.90;1.00
41547;DHT22;27271;45.412;10.852;2024-01-15T07:38:56;3.00;1.00
41547;DHT22;27271;45.412;10.852;2024-01-15T07:42:21;3.10;1.00
41547;DHT22;27271;45.412;10.852;2024-01-15T07:45:46;3.10;1.00
41547;DHT22;27271;45.412;10.852;2024-01-15T07:49:08;3.00;1.00
41547;DHT22;27271;45.412;10.852;2024-01-15T07:52:31;3.00;1.00
41547;DHT22;27271;45.412;10.852;2024-01-15T07:55:53;3.00;1.00
41547;DHT22;27271;45.412;10.852;2024-01-15T07:59:15;3.00;1.00
41547;DHT22;27271;45.412;10.852;2024-01-15T08:02:38;3.00;1.00
41547;DHT22;27271;45.412;10.852;2024-01-15T08:06:00;3.00;1.00
41547;DHT22;27271;45.412;10.852;2024-01-15T08:09:23;3.10;1.00
41547;DHT22;27271;45.412;10.852;2024-01-15T08:12:45;3.10;1.00
41547;DHT22;27271;45.412;10.852;2024-01-15T08:16:08;3.10;1.00
41547;DHT22;27271;45.412;10.852;2024-01-15T08:19:30;3.20;1.00
41547;DHT22;27271;45.412;10.852;2024-01-15T08:22:53;3.40;1.00
41547;DHT22;27271;45.412;10.852;2024-01-15T08:26:16;3.70;1.00
41547;DHT22;27271;45.412;10.852;2024-01-15T08:29:38;3.80;1.00
41547;DHT22;27271;45.412;10.852;2024-01-15T08:33:00;4.00;1.00
41547;DHT22;27271;45.412;10.852;2024-01-15T08:36:32;4.10;1.00
41547;DHT22;27271;45.412;10.852;2024-01-15T08:39:56;4.30;1.00
41547;DHT22;27271;45.412;10.852;2024-01-15T08:43:19;4.40;1.00
41547;DHT22;27271;45.412;10.852;2024-01-15T08:46:41;4.50;1.00
41547;DHT22;27271;45.412;10.852;2024-01-15T08:50:04;4.60;1.00
41547;DHT22;27271;45.412;10.852;2024-01-15T08:53:26;4.90;1.00
41547;DHT22;27271;45.412;10.852;2024-01-15T08:56:48;5.20;1.00
41547;DHT22;27271;45.412;10.852;2024-01-15T09:00:11;5.60;1.00
41547;DHT22;27271;45.412;10.852;2024-01-15T09:03:34;5.70;99.90
41547;DHT22;27271;45.412;10.852;2024-01-15T09:06:59;6.00;99.90
41547;DHT22;27271;45.412;10.852;2024-01-15T09:10:22;6.20;99.90
41547;DHT22;27271;45.412;10.852;2024-01-15T09:13:45;6.20;99.90
41547;DHT22;27271;45.412;10.852;2024-01-15T09:17:07;6.10;99.90
41547;DHT22;27271;45.412;10.852;2024-01-15T09:20:30;5.90;99.90
41547;DHT22;27271;45.412;10.852;2024-01-15T09:23:53;5.70;99.90
41547;DHT22;27271;45.412;10.852;2024-01-15T09:27:15;5.50;99.90
41547;DHT22;27271;45.412;10.852;2024-01-15T09:30:38;5.60;99.90
41547;DHT22;27271;45.412;10.852;2024-01-15T09:34:01;6.00;99.90
41547;DHT22;27271;45.412;10.852;2024-01-15T09:37:24;7.30;99.90
41547;DHT22;27271;45.412;10.852;2024-01-15T09:41:05;9.20;99.90
41547;DHT22;27271;45.412;10.852;2024-01-15T09:44:28;9.70;99.90
41547;DHT22;27271;45.412;10.852;2024-01-15T09:47:50;9.30;99.90
41547;DHT22;27271;45.412;10.852;2024-01-15T09:51:13;8.70;99.90
41547;DHT22;27271;45.412;10.852;2024-01-15T09:54:36;7.90;99.90
41547;DHT22;27271;45.412;10.852;2024-01-15T09:58:00;7.30;99.90
41547;DHT22;27271;45.412;10.852;2024-01-15T10:01:24;7.20;99.90
41547;DHT22;27271;45.412;10.852;2024-01-15T10:04:47;6.70;99.90
41547;DHT22;27271;45.412;10.852;2024-01-15T10:08:09;6.60;99.90
41547;DHT22;27271;45.412;10.852;2024-01-15T10:11:34;6.60;99.90
41547;DHT22;27271;45.412;10.852;2024-01-15T10:14:56;6.70;99.90
41547;DHT22;27271;45.412;10.852;2024-01-15T10:18:19;7.00;99.90
41547;DHT22;27271;45.412;10.852;2024-01-15T10:21:42;8.30;99.90
41547;DHT22;27271;45.412;10.852;2024-01-15T10:25:05;9.30;99.90
41547;DHT22;27271;45.412;10.852;2024-01-15T10:28:27;9.20;99.90
41547;DHT22;27271;45.412;10.852;2024-01-15T10:31:51;8.70;99.90
41547;DHT22;27271;45.412;10.852;2024-01-15T10:35:14;8.40;99.90
41547;DHT22;27271;45.412;10.852;2024-01-15T10:38:36;8.00;99.90
41547;DHT22;27271;45.412;10.852;2024-01-15T10:41:58;7.90;99.90
41547;DHT22;27271;45.412;10.852;2024-01-15T10:45:21;8.10;99.90
41547;DHT22;27271;45.412;10.852;2024-01-15T10:48:43;8.30;99.90
41547;DHT22;27271;45.412;10.852;2024-01-15T10:52:07;8.40;99.90
41547;DHT22;27271;45.412;10.852;2024-01-15T10:55:30;8.50;99.90
41547;DHT22;27271;45.412;10.852;2024-01-15T10:58:54;8.30;99.90
41547;DHT22;27271;45.412;10.852;2024-01-15T11:02:21;8.20;99.90
41547;DHT22;27271;45.412;10.852;2024-01-15T11:05:45;8.20;99.90
41547;DHT22;27271;45.412;10.852;2024-01-15T11:09:07;8.40;99.90
41547;DHT22;27271;45.412;10.852;2024-01-15T11:12:31;8.40;99.90
41547;DHT22;27271;45.412;10.852;2024-01-15T11:16:12;8.30;99.90
41547;DHT22;27271;45.412;10.852;2024-01-15T11:19:47;8.20;99.90
41547;DHT22;27271;45.412;10.852;2024-01-15T11:23:10;8.30;99.90
41547;DHT22;27271;45.412;10.852;2024-01-15T11:26:44;8.30;99.90
41547;DHT22;27271;45.412;10.852;2024-01-15T11:30:13;8.90;99.90
41547;DHT22;27271;45.412;10.852;2024-01-15T11:33:36;9.20;99.90
41547;DHT22;27271;45.412;10.852;2024-01-15T11:37:10;9.20;99.90
41547;DHT22;27271;45.412;10.852;2024-01-15T11:43:56;9.30;99.90
41547;DHT22;27271;45.412;10.852;2024-01-15T11:51:18;9.50;99.90
41547;DHT22;27271;45.412;10.852;2024-01-15T11:54:48;9.50;99.90
41547;DHT22;27271;45.412;10.852;2024-01-15T11:58:12;9.30;99.90
41547;DHT22;27271;45.412;10.852;2024-01-15T12:01:35;8.70;99.90
41547;DHT22;27271;45.412;10.852;2024-01-15T12:04:57;8.50;99.90
41547;DHT22;27271;45.412;10.852;2024-01-15T12:08:23;8.40;99.90
41547;DHT22;27271;45.412;10.852;2024-01-15T12:11:51;8.30;99.90
41547;DHT22;27271;45.412;10.852;2024-01-15T12:15:16;8.30;99.90
41547;DHT22;27271;45.412;10.852;2024-01-15T12:18:39;8.10;99.90
41547;DHT22;27271;45.412;10.852;2024-01-15T12:22:03;8.10;99.90
41547;DHT22;27271;45.412;10.852;2024-01-15T12:25:26;8.10;99.90
41547;DHT22;27271;45.412;10.852;2024-01-15T12:28:50;8.20;99.90
41547;DHT22;27271;45.412;10.852;2024-01-15T12:32:15;8.10;99.90
41547;DHT22;27271;45.412;10.852;2024-01-15T12:35:37;8.00;99.90
41547;DHT22;27271;45.412;10.852;2024-01-15T12:39:00;8.10;99.90
41547;DHT22;27271;45.412;10.852;2024-01-15T12:42:23;8.10;99.90
41547;DHT22;27271;45.412;10.852;2024-01-15T12:45:46;8.00;99.90
41547;DHT22;27271;45.412;10.852;2024-01-15T12:49:09;8.00;99.90
41547;DHT22;27271;45.412;10.852;2024-01-15T12:52:33;8.00;99.90
41547;DHT22;27271;45.412;10.852;2024-01-15T12:55:55;7.90;99.90
41547;DHT22;27271;45.412;10.852;2024-01-15T12:59:19;7.90;99.90
41547;DHT22;27271;45.412;10.852;2024-01-15T13:02:42;8.00;99.90
41547;DHT22;27271;45.412;10.852;2024-01-15T13:06:05;8.00;99.90
41547;DHT22;27271;45.412;10.852;2024-01-15T13:09:28;8.00;99.90
41547;DHT22;27271;45.412;10.852;2024-01-15T13:12:51;7.90;99.90
41547;DHT22;27271;45.412;10.852;2024-01-15T13:16:14;7.80;99.90
41547;DHT22;27271;45.412;10.852;2024-01-15T13:19:36;7.50;99.90
41547;DHT22;27271;45.412;10.852;2024-01-15T13:22:59;7.20;99.90
41547;DHT22;27271;45.412;10.852;2024-01-15T13:26:21;7.20;99.90
41547;DHT22;27271;45.412;10.852;2024-01-15T13:29:43;7.10;99.90
41547;DHT22;27271;45.412;10.852;2024-01-15T13:33:07;7.20;99.90
41547;DHT22;27271;45.412;10.852;2024-01-15T13:36:31;7.40;99.90
41547;DHT22;27271;45.412;10.852;2024-01-15T13:39:53;7.30;99.90
41547;DHT22;27271;45.412;10.852;2024-01-15T13:43:16;7.30;99.90
41547;DHT22;27271;45.412;10.852;2024-01-15T13:46:41;7.30;99.90
41547;DHT22;27271;45.412;10.852;2024-01-15T13:50:04;7.30;99.90
41547;DHT22;27271;45.412;10.852;2024-01-15T13:53:26;7.20;99.90
41547;DHT22;27271;45.412;10.852;2024-01-15T13:56:48;7.20;99.90
41547;DHT22;27271;45.412;10.852;2024-01-15T14:00:12;7.30;99.90
41547;DHT22;27271;45.412;10.852;2024-01-15T14:03:35;7.10;99.90
41547;DHT22;27271;45.412;10.852;2024-01-15T14:06:57;7.20;99.90
41547;DHT22;27271;45.412;10.852;2024-01-15T14:10:20;7.00;99.90
41547;DHT22;27271;45.412;10.852;2024-01-15T14:13:42;6.90;99.90
41547;DHT22;27271;45.412;10.852;2024-01-15T14:17:04;6.90;99.90
41547;DHT22;27271;45.412;10.852;2024-01-15T14:20:27;6.90;99.90
41547;DHT22;27271;45.412;10.852;2024-01-15T14:23:49;6.70;99.90
41547;DHT22;27271;45.412;10.852;2024-01-15T14:27:11;6.70;99.90
41547;DHT22;27271;45.412;10.852;2024-01-15T14:30:34;6.70;99.90
41547;DHT22;27271;45.412;10.852;2024-01-15T14:33:56;6.60;99.90
41547;DHT22;27271;45.412;10.852;2024-01-15T14:37:20;6.70;99.90
41547;DHT22;27271;45.412;10.852;2024-01-15T14:40:44;6.50;99.90
41547;DHT22;27271;45.412;10.852;2024-01-15T14:44:06;6.50;99.90
41547;DHT22;27271;45.412;10.852;2024-01-15T14:47:28;6.40;99.90
41547;DHT22;27271;45.412;10.852;2024-01-15T14:50:51;6.50;99.90
41547;DHT22;27271;45.412;10.852;2024-01-15T14:54:13;6.50;99.90
41547;DHT22;27271;45.412;10.852;2024-01-15T14:57:37;6.40;99.90
41547;DHT22;27271;45.412;10.852;2024-01-15T15:00:59;6.20;99.90
41547;DHT22;27271;45.412;10.852;2024-01-15T15:04:22;6.10;99.90
41547;DHT22;27271;45.412;10.852;2024-01-15T15:07:44;6.10;99.90
41547;DHT22;27271;45.412;10.852;2024-01-15T15:11:07;5.90;99.90
41547;DHT22;27271;45.412;10.852;2024-01-15T15:14:29;5.70;99.90
41547;DHT22;27271;45.412;10.852;2024-01-15T15:17:51;5.70;1.00
41547;DHT22;27271;45.412;10.852;2024-01-15T15:21:13;5.70;1.00
41547;DHT22;27271;45.412;10.852;2024-01-15T15:24:39;5.70;1.00
41547;DHT22;27271;45.412;10.852;2024-01-15T15:28:02;5.50;1.00
41547;DHT22;27271;45.412;10.852;2024-01-15T15:31:26;5.50;1.00
41547;DHT22;27271;45.412;10.852;2024-01-15T15:34:54;5.30;1.00
41547;DHT22;27271;45.412;10.852;2024-01-15T15:38:17;5.10;1.00
41547;DHT22;27271;45.412;10.852;2024-01-15T15:41:40;4.80;1.00
41547;DHT22;27271;45.412;10.852;2024-01-15T15:45:03;4.60;1.00
41547;DHT22;27271;45.412;10.852;2024-01-15T15:48:25;4.50;1.00
41547;DHT22;27271;45.412;10.852;2024-01-15T15:51:48;4.20;1.00
41547;DHT22;27271;45.412;10.852;2024-01-15T15:55:10;4.00;3.10
41547;DHT22;27271;45.412;10.852;2024-01-15T15:58:33;3.70;33.50
41547;DHT22;27271;45.412;10.852;2024-01-15T16:01:55;3.50;43.10
41547;DHT22;27271;45.412;10.852;2024-01-15T16:05:18;3.40;52.70
41547;DHT22;27271;45.412;10.852;2024-01-15T16:08:40;3.40;99.90
41547;DHT22;27271;45.412;10.852;2024-01-15T16:12:06;3.70;99.90
41547;DHT22;27271;45.412;10.852;2024-01-15T16:15:29;3.70;83.40
41547;DHT22;27271;45.412;10.852;2024-01-15T16:18:52;3.30;98.60
41547;DHT22;27271;45.412;10.852;2024-01-15T16:22:34;3.20;99.90
41547;DHT22;27271;45.412;10.852;2024-01-15T16:26:16;3.00;99.90
41547;DHT22;27271;45.412;10.852;2024-01-15T16:29:39;2.90;99.90
41547;DHT22;27271;45.412;10.852;2024-01-15T16:33:01;2.90;99.90
41547;DHT22;27271;45.412;10.852;2024-01-15T16:36:23;2.70;99.90
41547;DHT22;27271;45.412;10.852;2024-01-15T16:39:47;2.50;99.90
41547;DHT22;27271;45.412;10.852;2024-01-15T16:43:09;2.60;99.90
41547;DHT22;27271;45.412;10.852;2024-01-15T16:46:32;2.60;99.90
41547;DHT22;27271;45.412;10.852;2024-01-15T16:49:54;2.50;99.90
41547;DHT22;27271;45.412;10.852;2024-01-15T16:53:20;2.30;99.90
41547;DHT22;27271;45.412;10.852;2024-01-15T16:56:42;2.20;99.90
41547;DHT22;27271;45.412;10.852;2024-01-15T17:00:05;2.10;99.90
41547;DHT22;27271;45.412;10.852;2024-01-15T17:03:29;2.00;99.90
41547;DHT22;27271;45.412;10.852;2024-01-15T17:06:51;2.00;99.90
41547;DHT22;27271;45.412;10.852;2024-01-15T17:10:13;1.80;99.90
41547;DHT22;27271;45.412;10.852;2024-01-15T17:13:37;1.80;99.90
41547;DHT22;27271;45.412;10.852;2024-01-15T17:17:00;1.70;99.90
41547;DHT22;27271;45.412;10.852;2024-01-15T17:20:23;1.60;99.90
41547;DHT22;27271;45.412;10.852;2024-01-15T17:23:46;1.60;99.90
41547;DHT22;27271;45.412;10.852;2024-01-15T17:27:09;1.50;99.90
41547;DHT22;27271;45.412;10.852;2024-01-15T17:30:31;1.40;99.90
41547;DHT22;27271;45.412;10.852;2024-01-15T17:33:54;1.40;99.90
41547;DHT22;27271;45.412;10.852;2024-01-15T17:37:19;1.30;99.90
41547;DHT22;27271;45.412;10.852;2024-01-15T17:40:41;1.30;99.90
41547;DHT22;27271;45.412;10.852;2024-01-15T17:44:04;1.20;99.90
41547;DHT22;27271;45.412;10.852;2024-01-15T17:47:26;1.10;99.90
41547;DHT22;27271;45.412;10.852;2024-01-15T17:50:49;1.10;1.00
41547;DHT22;27271;45.412;10.852;2024-01-15T17:54:13;1.20;1.00
41547;DHT22;27271;45.412;10.852;2024-01-15T17:57:36;1.10;1.00
41547;DHT22;27271;45.412;10.852;2024-01-15T18:00:58;1.20;1.00
41547;DHT22;27271;45.412;10.852;2024-01-15T18:04:24;1.10;1.00
41547;DHT22;27271;45.412;10.852;2024-01-15T18:07:46;1.10;1.00
41547;DHT22;27271;45.412;10.852;2024-01-15T18:11:17;1.10;1.00
41547;DHT22;27271;45.412;10.852;2024-01-15T18:14:41;1.10;1.00
41547;DHT22;27271;45.412;10.852;2024-01-15T18:18:03;1.10;1.00
41547;DHT22;27271;45.412;10.852;2024-01-15T18:21:26;1.10;1.00
41547;DHT22;27271;45.412;10.852;2024-01-15T18:24:49;1.00;1.00
41547;DHT22;27271;45.412;10.852;2024-01-15T18:28:11;1.00;1.00
41547;DHT22;27271;45.412;10.852;2024-01-15T18:31:36;1.00;1.00
41547;DHT22;27271;45.412;10.852;2024-01-15T18:34:58;1.00;1.00
41547;DHT22;27271;45.412;10.852;2024-01-15T18:38:20;1.00;1.00
41547;DHT22;27271;45.412;10.852;2024-01-15T18:41:43;1.20;24.00
41547;DHT22;27271;45.412;10.852;2024-01-15T18:45:06;1.20;50.00
41547;DHT22;27271;45.412;10.852;2024-01-15T18:48:29;1.30;63.70
41547;DHT22;27271;45.412;10.852;2024-01-15T18:51:51;1.20;28.30
41547;DHT22;27271;45.412;10.852;2024-01-15T18:55:15;1.20;9.90
41547;DHT22;27271;45.412;10.852;2024-01-15T18:58:40;1.20;52.90
41547;DHT22;27271;45.412;10.852;2024-01-15T19:02:04;1.20;1.00
41547;DHT22;27271;45.412;10.852;2024-01-15T19:05:27;1.10;1.00
41547;DHT22;27271;45.412;10.852;2024-01-15T19:08:50;1.00;1.00
41547;DHT22;27271;45.412;10.852;2024-01-15T19:12:12;1.10;65.00
41547;DHT22;27271;45.412;10.852;2024-01-15T19:15:35;1.10;1.00
41547;DHT22;27271;45.412;10.852;2024-01-15T19:18:57;1.00;1.00
41547;DHT22;27271;45.412;10.852;2024-01-15T19:22:20;1.00;1.00
41547;DHT22;27271;45.412;10.852;2024-01-15T19:25:42;0.90;1.00
41547;DHT22;27271;45.412;10.852;2024-01-15T19:29:05;0.90;1.00
41547;DHT22;27271;45.412;10.852;2024-01-15T19:32:30;0.90;1.00
41547;DHT22;27271;45.412;10.852;2024-01-15T19:35:52;0.80;1.00
41547;DHT22;27271;45.412;10.852;2024-01-15T19:39:14;0.80;1.00
41547;DHT22;27271;45.412;10.852;2024-01-15T19:42:37;0.70;1.00
41547;DHT22;27271;45.412;10.852;2024-01-15T19:45:59;0.80;1.00
41547;DHT22;27271;45.412;10.852;2024-01-15T19:49:22;0.90;1.00
41547;DHT22;27271;45.412;10.852;2024-01-15T19:52:44;1.00;1.00
41547;DHT22;27271;45.412;10.852;2024-01-15T19:56:07;1.10;1.00
41547;DHT22;27271;45.412;10.852;2024-01-15T19:59:29;1.20;1.00
41547;DHT22;27271;45.412;10.852;2024-01-15T20:02:53;1.30;1.00
41547;DHT22;27271;45.412;10.852;2024-01-15T20:06:16;1.40;1.00
41547;DHT22;27271;45.412;10.852;2024-01-15T20:09:39;1.50;1.00
41547;DHT22;27271;45.412;10.852;2024-01-15T20:13:03;1.50;1.00
41547;DHT22;27271;45.412;10.852;2024-01-15T20:16:25;1.70;1.00
41547;DHT22;27271;45.412;10.852;2024-01-15T20:19:48;1.80;1.00
41547;DHT22;27271;45.412;10.852;2024-01-15T20:23:10;1.90;1.00
41547;DHT22;27271;45.412;10.852;2024-01-15T20:26:33;2.00;1.00
41547;DHT22;27271;45.412;10.852;2024-01-15T20:29:55;2.10;1.00
41547;DHT22;27271;45.412;10.852;2024-01-15T20:33:19;2.20;1.00
41547;DHT22;27271;45.412;10.852;2024-01-15T20:36:42;2.30;1.00
41547;DHT22;27271;45.412;10.852;2024-01-15T20:40:05;2.30;1.00
41547;DHT22;27271;45.412;10.852;2024-01-15T20:43:27;2.30;1.00
41547;DHT22;27271;45.412;10.852;2024-01-15T20:46:51;2.40;1.00
41547;DHT22;27271;45.412;10.852;2024-01-15T20:50:13;2.40;99.90
41547;DHT22;27271;45.412;10.852;2024-01-15T20:53:36;2.40;99.90
41547;DHT22;27271;45.412;10.852;2024-01-15T20:56:58;2.40;99.90
41547;DHT22;27271;45.412;10.852;2024-01-15T21:00:23;2.40;99.90
41547;DHT22;27271;45.412;10.852;2024-01-15T21:03:45;2.20;99.90
41547;DHT22;27271;45.412;10.852;2024-01-15T21:07:07;2.20;99.90
41547;DHT22;27271;45.412;10.852;2024-01-15T21:10:29;2.20;99.90
41547;DHT22;27271;45.412;10.852;2024-01-15T21:13:52;2.10;99.90
41547;DHT22;27271;45.412;10.852;2024-01-15T21:17:14;2.10;99.90
41547;DHT22;27271;45.412;10.852;2024-01-15T21:20:36;2.00;99.90
41547;DHT22;27271;45.412;10.852;2024-01-15T21:24:00;1.80;99.90
41547;DHT22;27271;45.412;10.852;2024-01-15T21:27:22;1.60;99.90
41547;DHT22;27271;45.412;10.852;2024-01-15T21:30:47;1.40;99.90
41547;DHT22;27271;45.412;10.852;2024-01-15T21:34:09;1.30;99.90
41547;DHT22;27271;45.412;10.852;2024-01-15T21:37:32;1.10;99.90
41547;DHT22;27271;45.412;10.852;2024-01-15T21:40:54;0.90;99.90
41547;DHT22;27271;45.412;10.852;2024-01-15T21:44:18;0.60;99.90
41547;DHT22;27271;45.412;10.852;2024-01-15T21:47:40;0.50;99.90
41547;DHT22;27271;45.412;10.852;2024-01-15T21:51:05;0.40;99.90
41547;DHT22;27271;45.412;10.852;2024-01-15T21:54:27;0.30;1.00
41547;DHT22;27271;45.412;10.852;2024-01-15T21:57:49;0.20;1.00
41547;DHT22;27271;45.412;10.852;2024-01-15T22:01:11;0.20;1.00
41547;DHT22;27271;45.412;10.852;2024-01-15T22:04:37;0.10;1.00
41547;DHT22;27271;45.412;10.852;2024-01-15T22:07:59;0.00;1.00
41547;DHT22;27271;45.412;10.852;2024-01-15T22:11:22;0.00;1.00
41547;DHT22;27271;45.412;10.852;2024-01-15T22:14:45;0.00;1.00
41547;DHT22;27271;45.412;10.852;2024-01-15T22:18:08;-0.10;1.00
41547;DHT22;27271;45.412;10.852;2024-01-15T22:21:30;-0.10;1.00
41547;DHT22;27271;45.412;10.852;2024-01-15T22:24:55;-0.20;1.00
41547;DHT22;27271;45.412;10.852;2024-01-15T22:28:18;-0.10;1.00
41547;DHT22;27271;45.412;10.852;2024-01-15T22:31:40;-0.10;1.00
41547;DHT22;27271;45.412;10.852;2024-01-15T22:35:04;-0.10;1.00
41547;DHT22;27271;45.412;10.852;2024-01-15T22:38:28;-0.20;1.00
41547;DHT22;27271;45.412;10.852;2024-01-15T22:41:50;-0.20;1.00
41547;DHT22;27271;45.412;10.852;2024-01-15T22:45:12;-0.20;1.00
41547;DHT22;27271;45.412;10.852;2024-01-15T22:48:38;-0.20;1.00
41547;DHT22;27271;45.412;10.852;2024-01-15T22:52:01;-0.20;1.00
41547;DHT22;27271;45.412;10.852;2024-01-15T22:55:23;-0.20;1.00
41547;DHT22;27271;45.412;10.852;2024-01-15T22:58:46;-0.20;1.00
41547;DHT22;27271;45.412;10.852;2024-01-15T23:02:08;-0.10;1.00
41547;DHT22;27271;45.412;10.852;2024-01-15T23:05:31;-0.10;1.00
41547;DHT22;27271;45.412;10.852;2024-01-15T23:08:54;-0.10;1.00
41547;DHT22;27271;45.412;10.852;2024-01-15T23:12:19;-0.20;1.00
41547;DHT22;27271;45.412;10.852;2024-01-15T23:15:43;-0.30;1.00
41547;DHT22;27271;45.412;10.852;2024-01-15T23:19:05;-0.20;1.00
41547;DHT22;27271;45.412;10.852;2024-01-15T23:22:28;-0.20;1.00
41547;DHT22;27271;45.412;10.852;2024-01-15T23:25:50;-0.30;1.00
41547;DHT22;27271;45.412;10.852;2024-01-15T23:29:12;-0.50;1.00
